createdAt,value
2022-11-25T00:02:43.768Z,13.70
2022-11-25T00:05:45.961Z,13.54
2022-11-25T00:08:50.850Z,13.58
2022-11-25T00:11:53.072Z,13.69
2022-11-25T00:14:55.167Z,13.66
2022-11-25T00:17:59.167Z,13.78
2022-11-25T00:21:07.048Z,13.83
2022-11-25T00:24:11.967Z,13.61
2022-11-25T00:27:15.090Z,13.69
2022-11-25T00:30:21.756Z,13.63
2022-11-25T00:33:24.627Z,13.72
2022-11-25T00:36:30.672Z,13.75
2022-11-25T00:39:34.343Z,13.63
2022-11-25T00:42:57.833Z,13.71
2022-11-25T00:46:00.490Z,13.51
2022-11-25T00:49:05.702Z,13.62
2022-11-25T00:52:09.724Z,13.70
2022-11-25T00:55:12.291Z,13.68
2022-11-25T00:58:14.974Z,13.61
2022-11-25T01:01:18.372Z,13.69
2022-11-25T01:04:22.345Z,13.64
2022-11-25T01:07:27.576Z,13.46
2022-11-25T01:10:31.206Z,13.57
2022-11-25T01:13:40.405Z,13.69
2022-11-25T01:16:43.867Z,13.68
2022-11-25T01:19:46.358Z,13.58
2022-11-25T01:22:49.074Z,13.47
2022-11-25T01:25:51.492Z,13.43
2022-11-25T01:28:57.038Z,13.51
2022-11-25T01:32:03.750Z,13.66
2022-11-25T01:35:07.973Z,13.63
2022-11-25T01:38:11.754Z,13.50
2022-11-25T01:41:15.874Z,13.70
2022-11-25T01:44:19.045Z,13.63
2022-11-25T01:47:24.721Z,13.58
2022-11-25T01:50:28.851Z,13.48
2022-11-25T01:53:33.731Z,13.39
2022-11-25T01:56:43.526Z,13.49
2022-11-25T01:59:53.720Z,13.68
2022-11-25T02:02:58.337Z,13.53
2022-11-25T02:06:15.423Z,13.51
2022-11-25T02:12:38.821Z,13.57
2022-11-25T02:15:41.753Z,13.42
2022-11-25T02:18:43.936Z,13.40
2022-11-25T02:21:50.506Z,13.60
2022-11-25T02:25:05.069Z,13.47
2022-11-25T02:28:15.569Z,13.62
2022-11-25T02:31:24.010Z,13.57
2022-11-25T02:34:26.513Z,13.26
2022-11-25T02:37:29.284Z,13.35
2022-11-25T02:40:32.844Z,13.36
2022-11-25T02:43:35.891Z,13.37
2022-11-25T02:46:38.340Z,13.41
2022-11-25T02:49:44.659Z,13.49
2022-11-25T02:52:46.860Z,13.51
2022-11-25T02:55:51.234Z,13.58
2022-11-25T02:58:53.770Z,13.39
2022-11-25T03:01:55.943Z,13.55
2022-11-25T03:05:01.391Z,13.50
2022-11-25T03:08:03.838Z,13.39
2022-11-25T03:11:07.439Z,13.35
2022-11-25T03:14:11.367Z,13.36
2022-11-25T03:17:15.782Z,13.37
2022-11-25T03:20:18.411Z,13.37
2022-11-25T03:23:23.243Z,13.30
2022-11-25T03:26:28.760Z,13.23
2022-11-25T03:29:32.568Z,13.39
2022-11-25T03:32:35.863Z,13.20
2022-11-25T03:35:40.837Z,13.36
2022-11-25T03:38:44.020Z,13.37
2022-11-25T03:41:46.272Z,13.54
2022-11-25T03:44:49.896Z,13.42
2022-11-25T03:47:54.419Z,13.35
2022-11-25T03:50:57.639Z,13.23
2022-11-25T03:54:01.470Z,13.22
2022-11-25T03:57:05.833Z,13.34
2022-11-25T04:00:09.946Z,13.34
2022-11-25T04:03:20.733Z,13.24
2022-11-25T04:06:24.303Z,13.30
2022-11-25T04:09:28.801Z,13.13
2022-11-25T04:12:49.431Z,13.35
2022-11-25T04:15:55.779Z,13.20
2022-11-25T04:18:57.898Z,13.19
2022-11-25T04:22:01.704Z,13.34
2022-11-25T04:25:07.417Z,13.35
2022-11-25T04:28:10.597Z,13.33
2022-11-25T04:31:13.038Z,13.39
2022-11-25T04:34:17.966Z,13.22
2022-11-25T04:37:22.954Z,13.28
2022-11-25T04:40:25.628Z,13.28
2022-11-25T04:43:38.067Z,13.31
2022-11-25T04:46:47.065Z,13.45
2022-11-25T04:49:49.890Z,13.29
2022-11-25T04:52:55.804Z,13.12
2022-11-25T04:56:00.148Z,13.15
2022-11-25T04:59:24.436Z,13.29
2022-11-25T05:02:29.242Z,13.30
2022-11-25T05:05:43.112Z,13.23
2022-11-25T05:08:49.047Z,13.33
2022-11-25T05:11:51.149Z,13.27
2022-11-25T05:14:54.271Z,13.54
2022-11-25T05:17:58.087Z,14.07
2022-11-25T05:21:16.242Z,14.63
2022-11-25T05:24:19.657Z,14.49
2022-11-25T05:27:25.639Z,14.61
2022-11-25T05:30:27.769Z,15.37
2022-11-25T05:33:30.461Z,15.71
2022-11-25T05:36:33.691Z,15.67
2022-11-25T05:39:35.983Z,15.54
2022-11-25T05:43:04.208Z,15.85
2022-11-25T05:46:10.984Z,16.52
2022-11-25T05:49:19.914Z,17.01
2022-11-25T05:52:22.869Z,16.42
2022-11-25T05:55:31.321Z,16.92
2022-11-25T05:58:34.918Z,16.28
2022-11-25T06:01:39.033Z,15.96
2022-11-25T06:04:41.182Z,15.96
2022-11-25T06:07:44.522Z,16.33
2022-11-25T06:10:47.309Z,16.06
2022-11-25T06:13:50.239Z,15.90
2022-11-25T06:16:54.740Z,16.18
2022-11-25T06:20:06.603Z,16.57
2022-11-25T06:23:10.757Z,16.31
2022-11-25T06:26:20.631Z,16.27
2022-11-25T06:29:25.597Z,16.69
2022-11-25T06:32:27.871Z,17.12
2022-11-25T06:35:37.074Z,16.82
2022-11-25T06:38:40.259Z,16.55
2022-11-25T06:41:42.308Z,16.40
2022-11-25T06:44:49.721Z,17.00
2022-11-25T06:47:53.881Z,17.40
2022-11-25T06:50:57.882Z,16.98
2022-11-25T06:54:00.036Z,17.23
2022-11-25T06:57:02.202Z,16.99
2022-11-25T07:00:05.042Z,16.69
2022-11-25T07:03:07.363Z,16.46
2022-11-25T07:06:18.222Z,16.42
2022-11-25T07:09:20.361Z,16.22
2022-11-25T07:12:22.402Z,16.32
2022-11-25T07:15:24.399Z,16.19
2022-11-25T07:18:26.806Z,16.24
2022-11-25T07:21:32.720Z,16.09
2022-11-25T07:24:35.603Z,16.06
2022-11-25T07:27:38.674Z,15.97
2022-11-25T07:31:22.242Z,15.67
2022-11-25T07:34:10.097Z,15.68
2022-11-25T07:37:13.338Z,15.64
2022-11-25T07:40:15.728Z,15.52
2022-11-25T07:43:17.789Z,15.66
2022-11-25T07:46:27.245Z,15.44
2022-11-25T07:49:29.786Z,15.35
2022-11-25T07:52:31.935Z,15.21
2022-11-25T07:55:33.915Z,15.08
2022-11-25T07:58:38.411Z,14.77
2022-11-25T08:01:45.378Z,14.87
2022-11-25T08:04:47.605Z,14.79
2022-11-25T08:07:50.358Z,14.77
2022-11-25T08:10:52.682Z,14.38
2022-11-25T08:13:55.408Z,14.35
2022-11-25T08:16:57.462Z,14.31
2022-11-25T08:19:59.925Z,14.35
2022-11-25T08:23:02.626Z,14.34
2022-11-25T08:26:13.932Z,14.11
2022-11-25T08:29:18.824Z,14.28
2022-11-25T08:32:21.047Z,14.34
2022-11-25T08:35:23.917Z,14.27
2022-11-25T08:38:27.591Z,14.28
2022-11-25T08:41:34.768Z,15.05
2022-11-25T08:44:37.938Z,15.15
2022-11-25T08:47:40.839Z,15.50
2022-11-25T08:50:48.240Z,15.82
2022-11-25T08:53:53.616Z,15.61
2022-11-25T08:56:55.980Z,15.51
2022-11-25T08:59:58.287Z,15.34
2022-11-25T09:03:03.436Z,15.19
2022-11-25T09:06:08.586Z,15.15
2022-11-25T09:09:11.946Z,15.37
2022-11-25T09:12:14.637Z,15.45
2022-11-25T09:15:16.973Z,15.72
2022-11-25T09:18:20.765Z,15.84
2022-11-25T09:21:25.407Z,16.00
2022-11-25T09:24:27.872Z,16.00
2022-11-25T09:27:31.818Z,15.91
2022-11-25T09:30:33.981Z,15.95
2022-11-25T09:33:36.366Z,15.96
2022-11-25T09:36:39.260Z,16.01
2022-11-25T09:39:42.909Z,15.82
2022-11-25T09:43:51.880Z,15.54
2022-11-25T09:47:47.042Z,15.53
2022-11-25T09:51:18.405Z,15.45
2022-11-25T09:54:27.899Z,15.31
2022-11-25T09:57:35.993Z,15.38
2022-11-25T10:00:42.072Z,15.50
2022-11-25T10:03:54.118Z,15.37
2022-11-25T10:07:02.017Z,15.20
2022-11-25T10:10:10.609Z,15.30
2022-11-25T10:13:21.397Z,15.36
2022-11-25T10:16:51.419Z,15.33
2022-11-25T10:20:24.087Z,15.17
2022-11-25T10:23:35.530Z,15.04
2022-11-25T10:26:48.979Z,15.07
2022-11-25T10:30:02.140Z,14.77
2022-11-25T10:33:25.543Z,14.88
2022-11-25T10:36:36.124Z,14.64
2022-11-25T10:39:38.729Z,14.46
2022-11-25T10:42:41.017Z,14.42
2022-11-25T10:46:05.738Z,14.78
2022-11-25T10:49:16.020Z,14.75
2022-11-25T10:52:23.391Z,14.83
2022-11-25T10:55:33.534Z,14.78
2022-11-25T10:58:38.320Z,14.84
2022-11-25T11:01:40.858Z,14.62
2022-11-25T11:04:52.980Z,14.38
2022-11-25T11:08:23.207Z,14.57
2022-11-25T11:11:25.841Z,14.31
2022-11-25T11:14:30.114Z,14.56
2022-11-25T11:17:37.289Z,14.73
2022-11-25T11:20:46.887Z,15.01
2022-11-25T11:23:55.289Z,15.42
2022-11-25T11:27:17.573Z,15.51
2022-11-25T11:30:25.869Z,15.44
2022-11-25T11:33:37.044Z,15.61
2022-11-25T11:37:08.579Z,15.68
2022-11-25T11:40:19.713Z,15.68
2022-11-25T11:43:34.722Z,15.59
2022-11-25T11:46:57.273Z,15.57
2022-11-25T11:50:23.517Z,15.51
2022-11-25T11:53:48.474Z,15.48
2022-11-25T11:57:00.532Z,15.40
2022-11-25T12:00:14.149Z,15.33
2022-11-25T12:03:25.882Z,15.03
2022-11-25T12:06:32.202Z,15.11
2022-11-25T12:10:11.925Z,15.31
2022-11-25T12:13:19.907Z,15.27
2022-11-25T12:16:29.763Z,15.14
2022-11-25T12:19:50.487Z,15.12
2022-11-25T12:22:57.942Z,14.97
2022-11-25T12:26:06.572Z,15.05
2022-11-25T12:29:29.517Z,14.96
2022-11-25T12:33:11.898Z,14.86
2022-11-25T12:36:21.170Z,14.99
2022-11-25T12:39:39.037Z,14.81
2022-11-25T12:42:46.694Z,14.82
2022-11-25T12:46:05.976Z,14.79
2022-11-25T12:49:21.592Z,14.85
2022-11-25T12:52:52.020Z,14.82
2022-11-25T12:56:00.653Z,14.85
2022-11-25T12:59:43.576Z,14.86
2022-11-25T13:03:12.307Z,14.81
2022-11-25T13:06:44.351Z,14.92
2022-11-25T13:10:01.607Z,15.09
2022-11-25T13:13:18.943Z,14.76
2022-11-25T13:16:22.715Z,14.74
2022-11-25T13:19:25.565Z,14.85
2022-11-25T13:22:29.869Z,14.63
2022-11-25T13:25:33.107Z,14.58
2022-11-25T13:28:39.626Z,14.74
2022-11-25T13:32:05.353Z,14.75
2022-11-25T13:35:22.645Z,14.36
2022-11-25T13:38:30.837Z,14.40
2022-11-25T13:41:39.471Z,15.39
2022-11-25T13:44:59.255Z,15.90
2022-11-25T13:48:37.357Z,15.74
2022-11-25T13:51:49.568Z,15.57
2022-11-25T13:54:56.714Z,15.84
2022-11-25T13:58:17.141Z,15.95
2022-11-25T14:01:29.994Z,16.31
2022-11-25T14:05:09.753Z,16.81
2022-11-25T14:08:45.073Z,17.72
2022-11-25T14:12:25.021Z,18.09
2022-11-25T14:15:35.764Z,18.35
2022-11-25T14:19:43.760Z,19.82
2022-11-25T14:22:33.337Z,18.31
2022-11-25T14:25:52.140Z,17.54
2022-11-25T14:29:19.899Z,19.25
2022-11-25T14:32:30.175Z,20.43
2022-11-25T14:35:45.255Z,18.58
2022-11-25T14:38:54.758Z,18.17
2022-11-25T14:41:59.744Z,20.17
2022-11-25T14:45:03.366Z,20.11
2022-11-25T14:48:22.293Z,18.78
2022-11-25T14:51:34.347Z,20.48
2022-11-25T14:54:42.621Z,19.92
2022-11-25T14:57:45.676Z,19.11
2022-11-25T15:00:53.579Z,20.11
2022-11-25T15:04:22.429Z,19.52
2022-11-25T15:07:30.942Z,19.08
2022-11-25T15:10:42.477Z,20.53
2022-11-25T15:13:54.416Z,21.17
2022-11-25T15:16:57.993Z,19.78
2022-11-25T15:20:09.923Z,20.21
2022-11-25T15:23:19.231Z,21.10
2022-11-25T15:26:27.475Z,20.25
2022-11-25T15:29:31.542Z,20.11
2022-11-25T15:32:37.759Z,21.00
2022-11-25T15:35:41.506Z,20.96
2022-11-25T15:38:46.463Z,19.91
2022-11-25T15:41:54.953Z,20.91
2022-11-25T15:45:07.191Z,21.07
2022-11-25T15:48:29.230Z,19.20
2022-11-25T15:51:45.424Z,18.64
2022-11-25T15:54:52.561Z,18.16
2022-11-25T15:57:56.604Z,18.07
2022-11-25T16:01:06.091Z,17.99
2022-11-25T16:04:23.060Z,17.78
2022-11-25T16:07:34.071Z,17.57
2022-11-25T16:10:42.016Z,17.36
2022-11-25T16:13:45.253Z,17.30
2022-11-25T16:16:48.351Z,16.96
2022-11-25T16:19:50.468Z,16.94
2022-11-25T16:22:52.927Z,16.78
2022-11-25T16:26:01.849Z,16.67
2022-11-25T16:29:16.027Z,16.47
2022-11-25T16:32:22.064Z,16.44
2022-11-25T16:35:27.194Z,16.27
2022-11-25T16:38:29.363Z,16.28
2022-11-25T16:41:35.263Z,16.12
2022-11-25T16:44:37.602Z,15.99
2022-11-25T16:47:53.688Z,16.06
2022-11-25T16:50:56.749Z,16.02
2022-11-25T16:54:04.182Z,16.04
2022-11-25T16:57:07.862Z,15.87
2022-11-25T17:00:17.231Z,15.97
2022-11-25T17:03:20.441Z,16.17
2022-11-25T17:06:25.464Z,16.19
2022-11-25T17:09:27.911Z,16.10
2022-11-25T17:12:33.230Z,16.30
2022-11-25T17:15:39.180Z,16.29
2022-11-25T17:18:41.316Z,16.43
2022-11-25T17:21:45.904Z,16.35
2022-11-25T17:24:48.821Z,16.44
2022-11-25T17:27:51.665Z,16.62
2022-11-25T17:30:56.336Z,16.51
2022-11-25T17:33:58.416Z,16.56
2022-11-25T17:37:00.452Z,16.25
2022-11-25T17:40:02.516Z,16.32
2022-11-25T17:43:05.846Z,16.19
2022-11-25T17:46:16.178Z,16.26
2022-11-25T17:49:18.675Z,16.41
2022-11-25T17:52:21.005Z,16.33
2022-11-25T17:55:23.158Z,16.44
2022-11-25T17:58:25.371Z,16.25
2022-11-25T18:01:27.605Z,16.23
2022-11-25T18:04:34.873Z,16.14
2022-11-25T18:07:37.308Z,16.03
2022-11-25T18:10:42.503Z,15.66
2022-11-25T18:13:50.943Z,15.57
2022-11-25T18:16:55.163Z,15.53
2022-11-25T18:19:57.551Z,15.32
2022-11-25T18:23:00.942Z,15.22
2022-11-25T18:26:04.160Z,15.13
2022-11-25T18:29:08.101Z,15.17
2022-11-25T18:32:11.168Z,15.24
2022-11-25T18:35:16.376Z,15.50
2022-11-25T18:38:18.442Z,15.46
2022-11-25T18:41:22.998Z,15.22
2022-11-25T18:44:29.142Z,15.18
2022-11-25T18:47:31.207Z,14.95
2022-11-25T18:50:33.234Z,14.92
2022-11-25T18:53:35.377Z,14.97
2022-11-25T18:56:38.974Z,14.73
2022-11-25T18:59:44.866Z,14.78
2022-11-25T19:02:47.464Z,14.76
2022-11-25T19:05:54.368Z,14.68
2022-11-25T19:08:56.912Z,15.59
2022-11-25T19:11:59.237Z,15.42
2022-11-25T19:15:01.733Z,15.31
2022-11-25T19:18:06.594Z,15.50
2022-11-25T19:21:21.312Z,15.89
2022-11-25T19:24:23.334Z,16.04
2022-11-25T19:27:27.238Z,16.20
2022-11-25T19:30:32.893Z,16.35
2022-11-25T19:33:37.685Z,16.51
2022-11-25T19:36:39.700Z,16.55
2022-11-25T19:39:41.901Z,16.47
2022-11-25T19:42:46.687Z,16.42
2022-11-25T19:45:50.265Z,16.19
2022-11-25T19:48:55.041Z,16.13
2022-11-25T19:51:59.295Z,16.41
2022-11-25T19:55:02.810Z,16.45
2022-11-25T19:58:04.905Z,16.38
2022-11-25T20:01:16.218Z,16.37
2022-11-25T20:04:22.613Z,16.35
2022-11-25T20:07:27.241Z,16.32
2022-11-25T20:10:32.259Z,16.16
2022-11-25T20:13:34.795Z,16.00
2022-11-25T20:16:40.270Z,16.04
2022-11-25T20:19:42.550Z,15.99
2022-11-25T20:23:10.594Z,15.87
2022-11-25T20:26:23.135Z,15.85
2022-11-25T20:29:30.432Z,15.74
2022-11-25T20:32:34.282Z,15.69
2022-11-25T20:35:36.481Z,15.77
2022-11-25T20:38:44.500Z,16.16
2022-11-25T20:41:51.895Z,16.18
2022-11-25T20:44:57.523Z,16.16
2022-11-25T20:48:00.024Z,16.02
2022-11-25T20:51:03.519Z,15.93
2022-11-25T20:54:11.689Z,15.87
2022-11-25T20:57:13.789Z,15.73
2022-11-25T21:00:20.547Z,15.74
2022-11-25T21:03:22.952Z,15.69
2022-11-25T21:06:30.164Z,15.48
2022-11-25T21:09:34.812Z,15.41
2022-11-25T21:12:36.816Z,15.34
2022-11-25T21:15:38.922Z,15.33
2022-11-25T21:18:41.888Z,15.30
2022-11-25T21:21:49.707Z,15.26
2022-11-25T21:24:51.774Z,15.17
2022-11-25T21:27:54.237Z,15.23
2022-11-25T21:30:56.231Z,15.24
2022-11-25T21:34:00.405Z,15.23
2022-11-25T21:37:03.202Z,15.09
2022-11-25T21:40:06.217Z,15.29
2022-11-25T21:43:21.499Z,15.21
2022-11-25T21:46:25.863Z,15.41
2022-11-25T21:49:28.014Z,15.37
2022-11-25T21:52:30.187Z,15.39
2022-11-25T21:55:33.777Z,15.32
2022-11-25T21:58:36.717Z,15.43
2022-11-25T22:01:38.943Z,15.38
2022-11-25T22:04:41.018Z,15.38
2022-11-25T22:07:43.537Z,15.40
2022-11-25T22:10:49.439Z,15.23
2022-11-25T22:13:51.615Z,15.19
2022-11-25T22:16:53.714Z,15.20
2022-11-25T22:19:56.780Z,15.03
2022-11-25T22:22:59.084Z,14.84
2022-11-25T22:26:01.128Z,14.81
2022-11-25T22:29:04.079Z,14.82
2022-11-25T22:32:12.433Z,14.82
2022-11-25T22:35:18.038Z,14.69
2022-11-25T22:38:21.059Z,14.54
2022-11-25T22:41:23.164Z,14.49
2022-11-25T22:44:34.667Z,14.57
2022-11-25T22:47:41.568Z,14.44
2022-11-25T22:50:45.843Z,14.45
2022-11-25T22:53:48.044Z,14.28
2022-11-25T22:56:50.541Z,14.33
2022-11-25T22:59:52.618Z,14.17
2022-11-25T23:02:57.047Z,14.20
2022-11-25T23:05:59.185Z,14.18
2022-11-25T23:09:03.206Z,14.09
2022-11-25T23:12:06.263Z,14.17
2022-11-25T23:15:13.157Z,14.06
2022-11-25T23:18:20.872Z,14.04
2022-11-25T23:21:25.663Z,14.05
2022-11-25T23:24:27.830Z,13.90
2022-11-25T23:27:29.928Z,13.96
2022-11-25T23:30:32.557Z,13.79
2022-11-25T23:33:40.544Z,13.88
2022-11-25T23:36:45.441Z,13.81
2022-11-25T23:39:52.247Z,13.82
2022-11-25T23:42:55.628Z,13.74
2022-11-25T23:45:57.873Z,13.71
2022-11-25T23:49:03.144Z,13.73
2022-11-25T23:52:08.220Z,13.79
2022-11-25T23:55:15.557Z,13.82
2022-11-25T23:58:19.717Z,13.77
